createdAt,value
2023-02-24T00:02:05.976Z,8.65
2023-02-24T00:07:10.518Z,8.59
2023-02-24T00:12:14.502Z,8.52
2023-02-24T00:17:16.361Z,8.53
2023-02-24T00:22:18.013Z,8.50
2023-02-24T00:27:19.625Z,8.51
2023-02-24T00:32:21.611Z,8.46
2023-02-24T00:37:24.239Z,8.43
2023-02-24T00:42:25.953Z,8.38
2023-02-24T00:47:28.089Z,8.40
2023-02-24T00:52:29.706Z,8.43
2023-02-24T00:57:33.292Z,8.28
2023-02-24T01:02:35.430Z,8.20
2023-02-24T01:07:37.138Z,8.15
2023-02-24T01:12:49.593Z,8.10
2023-02-24T01:17:51.411Z,8.18
2023-02-24T01:22:53.481Z,8.05
2023-02-24T01:27:55.196Z,7.97
2023-02-24T01:32:57.566Z,7.91
2023-02-24T01:37:59.282Z,7.85
2023-02-24T01:43:08.720Z,7.71
2023-02-24T01:48:12.501Z,7.68
2023-02-24T01:53:15.080Z,7.72
2023-02-24T01:58:23.956Z,7.66
2023-02-24T02:03:33.366Z,7.75
2023-02-24T02:08:37.959Z,7.69
2023-02-24T02:13:45.047Z,7.71
2023-02-24T02:19:05.064Z,7.72
2023-02-24T02:24:22.151Z,7.64
2023-02-24T02:29:30.595Z,7.70
2023-02-24T02:34:34.900Z,7.66
2023-02-24T02:39:58.879Z,7.72
2023-02-24T02:45:13.434Z,7.73
2023-02-24T02:50:27.785Z,7.79
2023-02-24T02:55:46.591Z,7.71
2023-02-24T03:01:01.775Z,7.71
2023-02-24T03:06:13.584Z,7.55
2023-02-24T03:11:18.717Z,7.44
2023-02-24T03:16:23.238Z,7.38
2023-02-24T03:21:36.631Z,7.45
2023-02-24T03:26:45.144Z,7.40
2023-02-24T03:31:54.300Z,7.36
2023-02-24T03:36:57.338Z,7.15
2023-02-24T03:42:15.571Z,6.88
2023-02-24T03:47:20.358Z,6.80
2023-02-24T03:52:33.303Z,6.80
2023-02-24T03:58:12.819Z,6.64
2023-02-24T04:03:58.105Z,6.51
2023-02-24T04:09:18.181Z,6.45
2023-02-24T04:14:33.180Z,6.48
2023-02-24T04:19:40.629Z,6.48
2023-02-24T04:24:46.323Z,6.40
2023-02-24T04:29:53.104Z,6.50
2023-02-24T04:35:06.743Z,6.47
2023-02-24T04:40:12.405Z,6.46
2023-02-24T04:45:18.666Z,6.28
2023-02-24T04:50:23.106Z,6.32
2023-02-24T04:55:29.528Z,6.37
2023-02-24T05:00:35.684Z,6.42
2023-02-24T05:05:37.655Z,6.45
2023-02-24T05:10:43.939Z,6.47
2023-02-24T05:15:48.042Z,6.50
2023-02-24T05:21:13.925Z,6.40
2023-02-24T05:26:18.391Z,6.42
2023-02-24T05:31:28.537Z,6.41
2023-02-24T05:36:36.592Z,6.23
2023-02-24T05:41:42.134Z,6.06
2023-02-24T05:46:46.116Z,5.76
2023-02-24T05:51:56.975Z,5.67
2023-02-24T05:57:04.106Z,5.50
2023-02-24T06:02:09.632Z,5.48
2023-02-24T06:07:13.882Z,5.39
2023-02-24T06:12:16.758Z,5.50
2023-02-24T06:17:20.033Z,5.48
2023-02-24T06:22:24.225Z,5.52
2023-02-24T06:27:25.927Z,5.16
2023-02-24T06:32:28.211Z,5.20
2023-02-24T06:37:30.081Z,5.30
2023-02-24T06:42:31.728Z,5.36
2023-02-24T06:47:33.482Z,5.19
2023-02-24T06:52:36.422Z,4.94
2023-02-24T06:57:38.026Z,4.62
2023-02-24T07:02:40.083Z,4.62
2023-02-24T07:07:45.978Z,4.68
2023-02-24T07:12:47.640Z,4.51
2023-02-24T07:17:50.800Z,4.64
2023-02-24T07:22:52.560Z,4.60
2023-02-24T07:27:54.170Z,4.32
2023-02-24T07:32:57.147Z,4.40
2023-02-24T07:38:02.138Z,4.45
2023-02-24T07:43:06.449Z,4.58
2023-02-24T07:48:08.076Z,4.26
2023-02-24T07:53:10.111Z,4.37
2023-02-24T07:58:11.857Z,4.43
2023-02-24T08:03:13.692Z,4.62
2023-02-24T08:08:21.003Z,4.41
2023-02-24T08:13:22.777Z,4.25
2023-02-24T08:18:24.471Z,3.98
2023-02-24T08:23:26.088Z,3.85
2023-02-24T08:28:27.689Z,3.96
2023-02-24T08:33:30.258Z,4.48
2023-02-24T08:38:42.068Z,3.64
2023-02-24T08:43:46.478Z,4.02
2023-02-24T08:48:57.165Z,4.17
2023-02-24T08:54:15.644Z,4.38
2023-02-24T08:59:37.376Z,4.56
2023-02-24T09:04:39.038Z,4.78
2023-02-24T09:09:42.501Z,3.84
2023-02-24T09:14:44.238Z,4.04
2023-02-24T09:19:52.495Z,4.36
2023-02-24T09:25:14.109Z,3.88
2023-02-24T09:30:35.856Z,3.77
2023-02-24T09:35:41.879Z,3.71
2023-02-24T09:40:49.535Z,4.50
2023-02-24T09:45:58.489Z,4.91
2023-02-24T09:51:05.521Z,4.60
2023-02-24T09:56:22.163Z,5.17
2023-02-24T10:01:33.492Z,6.11
2023-02-24T10:06:45.063Z,7.65
2023-02-24T10:11:53.675Z,5.65
2023-02-24T10:17:15.348Z,6.42
2023-02-24T10:22:56.706Z,7.40
2023-02-24T10:28:20.124Z,7.85
2023-02-24T10:33:37.858Z,6.82
2023-02-24T10:38:45.690Z,6.35
2023-02-24T10:43:56.472Z,6.24
2023-02-24T10:49:02.235Z,5.90
2023-02-24T10:54:30.877Z,6.55
2023-02-24T10:59:58.522Z,7.07
2023-02-24T11:05:27.147Z,7.02
2023-02-24T11:10:42.896Z,6.90
2023-02-24T11:16:06.577Z,7.65
2023-02-24T11:21:14.471Z,7.37
2023-02-24T11:26:26.624Z,8.37
2023-02-24T11:31:46.963Z,8.26
2023-02-24T11:37:16.085Z,9.34
2023-02-24T11:42:25.965Z,8.87
2023-02-24T11:47:36.903Z,8.59
2023-02-24T11:52:43.563Z,8.10
2023-02-24T11:57:51.100Z,8.30
2023-02-24T12:03:13.615Z,8.20
2023-02-24T12:08:21.440Z,8.80
2023-02-24T12:13:41.631Z,8.19
2023-02-24T12:18:55.092Z,8.70
2023-02-24T12:23:58.559Z,7.92
2023-02-24T12:29:18.750Z,7.68
2023-02-24T12:34:48.981Z,7.08
2023-02-24T12:40:25.018Z,7.29
2023-02-24T12:45:31.729Z,7.54
2023-02-24T12:50:57.693Z,7.20
2023-02-24T12:56:20.940Z,7.27
2023-02-24T13:01:30.092Z,7.41
2023-02-24T13:06:53.177Z,7.27
2023-02-24T13:12:16.039Z,7.64
2023-02-24T13:17:21.643Z,7.44
2023-02-24T13:22:23.255Z,7.35
2023-02-24T13:27:28.906Z,7.14
2023-02-24T13:32:36.471Z,7.02
2023-02-24T13:37:40.671Z,7.12
2023-02-24T13:43:04.880Z,7.10
2023-02-24T13:48:25.019Z,6.99
2023-02-24T13:53:35.052Z,6.96
2023-02-24T13:58:54.896Z,7.22
2023-02-24T14:04:17.326Z,7.05
2023-02-24T14:09:27.155Z,6.92
2023-02-24T14:14:30.422Z,7.15
2023-02-24T14:19:32.053Z,7.12
2023-02-24T14:24:33.670Z,7.12
2023-02-24T14:29:43.942Z,6.98
2023-02-24T14:34:48.041Z,6.91
2023-02-24T14:39:54.909Z,6.74
2023-02-24T14:44:59.119Z,6.75
2023-02-24T14:50:02.900Z,6.74
2023-02-24T14:55:16.622Z,6.84
2023-02-24T15:00:24.264Z,6.84
2023-02-24T15:05:26.134Z,6.95
2023-02-24T15:10:30.852Z,6.87
2023-02-24T15:15:38.598Z,6.98
2023-02-24T15:20:41.085Z,6.94
2023-02-24T15:25:46.181Z,6.89
2023-02-24T15:31:21.519Z,6.88
2023-02-24T15:36:26.833Z,6.88
2023-02-24T15:41:40.877Z,6.86
2023-02-24T15:46:42.533Z,6.76
2023-02-24T15:51:46.367Z,6.81
2023-02-24T15:56:48.916Z,6.90
2023-02-24T16:01:52.219Z,6.72
2023-02-24T16:06:56.558Z,6.50
2023-02-24T16:11:59.996Z,6.35
2023-02-24T16:17:06.654Z,5.86
2023-02-24T16:22:10.388Z,5.68
2023-02-24T16:27:21.093Z,5.47
2023-02-24T16:32:25.769Z,5.27
2023-02-24T16:37:29.463Z,5.10
2023-02-24T16:42:31.117Z,4.99
2023-02-24T16:47:34.174Z,4.91
2023-02-24T16:52:35.794Z,4.91
2023-02-24T16:57:37.448Z,4.86
2023-02-24T17:02:40.667Z,4.85
2023-02-24T17:07:42.277Z,4.61
2023-02-24T17:12:44.181Z,4.65
2023-02-24T17:17:46.120Z,4.45
2023-02-24T17:22:48.406Z,4.36
2023-02-24T17:27:50.569Z,4.20
2023-02-24T17:32:52.408Z,4.21
2023-02-24T17:37:54.751Z,4.25
2023-02-24T17:42:56.495Z,4.27
2023-02-24T17:47:58.105Z,4.20
2023-02-24T17:52:59.717Z,4.08
2023-02-24T17:58:01.337Z,4.04
2023-02-24T18:03:03.614Z,4.14
2023-02-24T18:08:05.410Z,4.15
2023-02-24T18:13:07.026Z,4.10
2023-02-24T18:18:09.463Z,4.01
2023-02-24T18:23:12.366Z,3.97
2023-02-24T18:28:14.009Z,3.89
2023-02-24T18:33:15.739Z,3.85
2023-02-24T18:38:17.882Z,3.92
2023-02-24T18:43:19.521Z,3.82
2023-02-24T18:48:21.247Z,3.81
2023-02-24T18:53:23.881Z,3.73
2023-02-24T18:58:25.557Z,3.67
2023-02-24T19:03:27.253Z,3.54
2023-02-24T19:08:28.864Z,3.52
2023-02-24T19:13:30.808Z,3.48
2023-02-24T19:18:32.454Z,3.39
2023-02-24T19:23:34.984Z,3.42
2023-02-24T19:28:36.596Z,3.32
2023-02-24T19:33:38.195Z,3.38
2023-02-24T19:38:41.909Z,3.31
2023-02-24T19:43:43.771Z,3.17
2023-02-24T19:48:46.082Z,3.03
2023-02-24T19:53:48.295Z,3.14
2023-02-24T19:58:53.755Z,3.17
2023-02-24T20:03:57.688Z,3.24
2023-02-24T20:09:00.288Z,3.33
2023-02-24T20:14:01.967Z,3.36
2023-02-24T20:19:06.068Z,3.41
2023-02-24T20:24:13.175Z,3.42
2023-02-24T20:29:16.619Z,3.42
2023-02-24T20:34:18.283Z,3.49
2023-02-24T20:39:24.798Z,3.53
2023-02-24T20:44:27.105Z,3.52
2023-02-24T20:49:28.800Z,3.65
2023-02-24T20:54:30.418Z,3.71
2023-02-24T20:59:32.085Z,3.68
2023-02-24T21:04:33.744Z,3.79
2023-02-24T21:09:37.283Z,3.79
2023-02-24T21:14:39.044Z,3.82
2023-02-24T21:19:40.772Z,3.84
2023-02-24T21:24:42.925Z,3.80
2023-02-24T21:29:45.420Z,3.83
2023-02-24T21:34:47.114Z,3.85
2023-02-24T21:39:49.229Z,3.96
2023-02-24T21:44:51.211Z,4.03
2023-02-24T21:49:52.854Z,4.06
2023-02-24T21:54:54.490Z,4.14
2023-02-24T21:59:56.917Z,4.17
2023-02-24T22:04:58.520Z,4.20
2023-02-24T22:10:00.165Z,4.15
2023-02-24T22:15:01.787Z,4.21
2023-02-24T22:20:05.321Z,4.17
2023-02-24T22:25:08.633Z,4.17
2023-02-24T22:30:11.157Z,4.12
2023-02-24T22:35:12.760Z,4.12
2023-02-24T22:40:14.391Z,3.90
2023-02-24T22:45:16.078Z,3.78
2023-02-24T22:50:17.817Z,3.71
2023-02-24T22:55:20.507Z,3.68
2023-02-24T23:00:23.191Z,3.69
2023-02-24T23:05:24.894Z,3.61
2023-02-24T23:10:26.520Z,3.61
2023-02-24T23:15:28.487Z,3.54
2023-02-24T23:20:30.093Z,3.53
2023-02-24T23:25:31.695Z,3.56
2023-02-24T23:30:33.436Z,3.61
2023-02-24T23:35:35.111Z,3.62
2023-02-24T23:40:49.504Z,3.58
2023-02-24T23:45:51.942Z,3.41
2023-02-24T23:50:57.294Z,3.22
2023-02-24T23:55:58.937Z,3.04
